Accueil
METAR-TAF:

METAR-TAF

Aéroports :

Aéroport de Luanda-Quatro de Fevereiro

Luanda, Angola

latitude: 08-51S, longitude: 013-14E, altitude: 74 m

Observation

Le bulletin a été fait il y a 1 heure et 16 minutes, à 17:00 UTC
Vent 8 kt de sud-ouest, variant entre sud et ouest/sud-ouest
Température 24°C
Humidité 69%
Pression 1010 hPa
Visibilité 10 km ou plus
pas de nuages en-dessous de 1500 mètres et pas de cumulonimbus.

METAR: FNLU 201700Z 22008KT 190V250 CAVOK 24/18 Q1010

Heure: 19:16 (18:16 UTC)

Prévision

Le bulletin a été fait il y a 1 heure et 16 minutes, à 17:00 UTC
Prévision valable du 20 à 18 UTC au 21 à 24 UTC
Vent 6 kt de sud-ouest
Visibilité 10 km ou plus
Quelques nuages à une hauteur de 2200 ft
Temporairement
du 21 à 03 UTC au 21 à 08 UTC
Visibilité: 4000 m
Ciel couvert à une hauteur de 1700 ft
brume,

TAF: FNLU 201700Z 2018/2124 23006KT 9999 FEW022 TEMPO 2103/2108 4000 BR OVC017

Observations et prévisions météorologiques de plus de 4000 aéroports (messages METAR et TAF).

Les stations disponibles sont représentées par des disques jaunes et rouges sur la carte.

Passer la souris dessus pour voir le nom de la station.

Cliquer dessus pour voir les observations et prévisions météorologiques.

Pour changer de carte: cliquez sur les boutons verts avec une croix noire pour zoomer, sur le bouton vert avec un tiret pour effectuer un zoom arrière, ou sur les flèches vertes pour les cartes adjacentes.


METAR-TAF: